Time;durP1;ratioP1;P1;durP2;ratioP2;P2;SDS_P1;SDS_P2;PMS_P1;PMS_P2;Temp;Humidity;BMP_temperature;BMP_pressure;BME280_temperature;BME280_humidity;BME280_pressure;Samples;Min_cycle;Max_cycle;Signal;HPM_P1;HPM_P2
2023/11/15 00:02:07;;;;;;;;;;;;;;;;;;5065548;28;4937;-65
2023/11/15 00:04:33;;;;;;;;;;;;;;;;;;5054467;28;4683;-66
2023/11/15 00:13:29;;;;;;;;;;;;;;;;;;5072696;28;4620;-66
2023/11/15 00:15:54;;;;;;;;;;;;;;;;;;5049270;28;4955;-66
2023/11/15 00:18:19;;;;;;;;;;;;;;;;;;5050883;28;4888;-67
2023/11/15 00:21:02;;;;;;;;;;;;;;;;;;5056952;28;1536;-66
2023/11/15 00:23:28;;;;;;;;;;;;;;;;;;5069364;28;5021;-67
2023/11/15 00:25:53;;;;;;;;;;;;;;;;;;5051584;28;4421;-66
2023/11/15 00:28:19;;;;;;;;;;;;;;;;;;5057932;28;5010;-66
2023/11/15 00:30:44;;;;;;;;;;;;;;;;;;5034870;28;5113;-67
2023/11/15 00:33:11;;;;;;;;;;;;;;;;;;5058955;28;5269;-66
2023/11/15 00:35:45;;;;;;;;;;;;;;;;;;5063882;28;2489;-67
2023/11/15 00:38:11;;;;;;;;;;;;;;;;;;5051986;28;4810;-67
2023/11/15 00:40:37;;;;;;;;;;;;;;;;;;5046490;28;4630;-67
2023/11/15 00:43:03;;;;;;;;;;;;;;;;;;5054664;28;5031;-67
2023/11/15 00:45:29;;;;;;;;;;;;;;;;;;5056350;28;5131;-66
2023/11/15 00:47:54;;;;;;;;;;;;;;;;;;5086953;28;999;-67
2023/11/15 00:50:20;;;;;;;;;;;;;;;;;;5069601;28;4985;-65
2023/11/15 00:52:53;;;;;;;;;;;;;;;;;;5059824;28;4998;-67
2023/11/15 00:55:19;;;;;;;;;;;;;;;;;;5072963;28;5043;-67
2023/11/15 00:57:45;;;;;;;;;;;;;;;;;;5039009;28;4955;-67
2023/11/15 01:00:23;;;;;;;;;;;;;;;;;;5055977;28;5060;-66
2023/11/15 01:02:50;;;;;;;;;;;;;;;;;;5070150;28;1571;-66
2023/11/15 01:05:36;;;;;;;;;;;;;;;;;;5053178;28;4641;-67
2023/11/15 01:08:19;;;;;;;;;;;;;;;;;;5055431;28;5013;-66
2023/11/15 01:10:45;;;;;;;;;;;;;;;;;;5058306;28;5088;-66
2023/11/15 01:13:12;;;;;;;;;;;;;;;;;;5053064;28;5007;-67
2023/11/15 01:15:38;;;;;;;;;;;;;;;;;;5055046;28;4605;-67
2023/11/15 01:18:08;;;;;;;;;;;;;;;;;;5052796;28;5037;-66
2023/11/15 01:20:36;;;;;;;;;;;;;;;;;;5055585;28;1178;-66
2023/11/15 01:23:02;;;;;;;;;;;;;;;;;;5052945;28;4442;-67
2023/11/15 01:25:30;;;;;;;;;;;;;;;;;;5056574;28;4647;-67
2023/11/15 01:27:56;;;;;;;;;;;;;;;;;;5059732;28;4477;-66
2023/11/15 01:30:22;;;;;;;;;;;;;;;;;;5075063;28;4486;-67
2023/11/15 01:32:48;;;;;;;;;;;;;;;;;;5062188;28;1248;-66
2023/11/15 01:41:18;;;;;;;;;;;;;;;;;;5057175;28;4363;-66
2023/11/15 01:43:44;;;;;;;;;;;;;;;;;;5036523;28;4984;-66
2023/11/15 01:46:09;;;;;;;;;;;;;;;;;;5038217;28;4698;-66
2023/11/15 01:48:35;;;;;;;;;;;;;;;;;;5059721;28;4495;-65
2023/11/15 01:57:01;;;;;;;;;;;;;;;;;;5058735;28;1163;-66
2023/11/15 01:59:26;;;;;;;;;;;;;;;;;;5065523;28;5456;-66
2023/11/15 02:01:51;;;;;;;;;;;;;;;;;;5064997;28;5078;-66
2023/11/15 02:04:17;;;;;;;;;;;;;;;;;;5029992;28;5070;-66
2023/11/15 02:06:42;;;;;;;;;;;;;;;;;;5050042;28;5026;-63
2023/11/15 02:09:08;;;;;;;;;;;;;;;;;;5068782;28;4868;-66
2023/11/15 02:11:49;;;;;;;;;;;;;;;;;;5060545;28;1106;-66
2023/11/15 02:14:15;;;;;;;;;;;;;;;;;;5042225;28;4501;-66
2023/11/15 02:16:48;;;;;;;;;;;;;;;;;;5070613;28;5304;-65
2023/11/15 02:19:15;;;;;;;;;;;;;;;;;;5054475;28;5115;-64
2023/11/15 02:21:47;;;;;;;;;;;;;;;;;;5053977;28;4640;-66
2023/11/15 02:27:15;;;;;;;;;;;;;;;;;;5060208;28;5152;-65
2023/11/15 02:29:40;;;;;;;;;;;;;;;;;;5061589;28;1272;-67
2023/11/15 02:32:06;;;;;;;;;;;;;;;;;;5072382;28;5086;-67
2023/11/15 02:35:17;;;;;;;;;;;;;;;;;;5073359;28;4458;-67
2023/11/15 02:38:15;;;;;;;;;;;;;;;;;;5050588;28;4423;-66
2023/11/15 02:40:47;;;;;;;;;;;;;;;;;;5053691;28;4924;-66
2023/11/15 02:43:13;;;;;;;;;;;;;;;;;;5068835;28;5049;-66
2023/11/15 02:45:38;;;;;;;;;;;;;;;;;;5069298;28;5033;-66
2023/11/15 02:48:03;;;;;;;;;;;;;;;;;;5052240;28;5035;-65
2023/11/15 02:50:30;;;;;;;;;;;;;;;;;;5051336;28;1151;-65
2023/11/15 02:52:55;;;;;;;;;;;;;;;;;;5044670;28;5247;-66
2023/11/15 02:55:21;;;;;;;;;;;;;;;;;;5055034;28;4542;-65
2023/11/15 02:57:46;;;;;;;;;;;;;;;;;;5048159;28;4637;-66
2023/11/15 03:00:45;;;;;;;;;;;;;;;;;;5034933;28;5029;-66
2023/11/15 03:03:41;;;;;;;;;;;;;;;;;;5050495;28;5056;-66
2023/11/15 03:06:06;;;;;;;;;;;;;;;;;;5057007;28;4636;-66
2023/11/15 03:08:31;;;;;;;;;;;;;;;;;;5066210;28;1179;-65
2023/11/15 03:10:57;;;;;;;;;;;;;;;;;;5052489;28;5045;-67
2023/11/15 03:13:22;;;;;;;;;;;;;;;;;;5050325;28;4975;-66
2023/11/15 03:15:48;;;;;;;;;;;;;;;;;;5050648;28;5020;-66
2023/11/15 03:18:13;;;;;;;;;;;;;;;;;;5049725;28;4468;-66
2023/11/15 03:20:39;;;;;;;;;;;;;;;;;;5049261;28;1253;-65
2023/11/15 03:23:04;;;;;;;;;;;;;;;;;;5052695;28;4754;-66
2023/11/15 03:25:29;;;;;;;;;;;;;;;;;;5054809;28;4929;-66
2023/11/15 03:27:55;;;;;;;;;;;;;;;;;;5054286;28;5610;-66
2023/11/15 03:30:21;;;;;;;;;;;;;;;;;;5051096;28;5221;-65
2023/11/15 03:32:46;;;;;;;;;;;;;;;;;;5041355;28;1304;-66
2023/11/15 03:35:11;;;;;;;;;;;;;;;;;;5072566;28;4900;-66
2023/11/15 03:37:37;;;;;;;;;;;;;;;;;;5052428;28;4940;-66
2023/11/15 03:40:03;;;;;;;;;;;;;;;;;;5051788;28;4646;-67
2023/11/15 03:42:28;;;;;;;;;;;;;;;;;;5034191;28;4642;-66
2023/11/15 03:44:54;;;;;;;;;;;;;;;;;;5074315;28;1064;-65
2023/11/15 03:47:49;;;;;;;;;;;;;;;;;;5074866;28;4983;-65
2023/11/15 03:50:14;;;;;;;;;;;;;;;;;;5068261;28;4837;-65
2023/11/15 04:08:05;;;;;;;;;;;;;;;;;;5050127;28;5228;-65
2023/11/15 04:13:42;;;;;;;;;;;;;;;;;;5052117;28;5072;-65
2023/11/15 04:28:14;;;;;;;;;;;;;;;;;;5051458;28;4496;-64
2023/11/15 04:30:40;;;;;;;;;;;;;;;;;;5054103;28;5047;-65
2023/11/15 04:33:05;;;;;;;;;;;;;;;;;;5052196;28;4993;-65
2023/11/15 04:35:41;;;;;;;;;;;;;;;;;;5049964;28;1981;-64
2023/11/15 04:38:09;;;;;;;;;;;;;;;;;;5053194;28;5157;-65
2023/11/15 04:40:35;;;;;;;;;;;;;;;;;;5068800;28;5274;-64
2023/11/15 04:43:00;;;;;;;;;;;;;;;;;;5058305;28;4942;-65
2023/11/15 04:48:28;;;;;;;;;;;;;;;;;;5051853;28;5085;-65
2023/11/15 04:50:54;;;;;;;;;;;;;;;;;;5070493;28;1040;-65
2023/11/15 04:53:19;;;;;;;;;;;;;;;;;;5055185;28;4476;-64
2023/11/15 04:55:45;;;;;;;;;;;;;;;;;;5054418;28;5049;-64
2023/11/15 04:58:10;;;;;;;;;;;;;;;;;;5050541;28;4996;-64
2023/11/15 05:00:35;;;;;;;;;;;;;;;;;;5049932;28;4908;-63
2023/11/15 05:03:01;;;;;;;;;;;;;;;;;;5054108;28;1208;-65
2023/11/15 05:05:26;;;;;;;;;;;;;;;;;;5031059;28;4687;-64
2023/11/15 05:07:52;;;;;;;;;;;;;;;;;;5061319;28;4959;-63
2023/11/15 05:10:19;;;;;;;;;;;;;;;;;;5051542;28;5132;-65
2023/11/15 05:12:44;;;;;;;;;;;;;;;;;;5069092;28;5081;-62
2023/11/15 05:15:17;;;;;;;;;;;;;;;;;;5055067;28;5138;-63
2023/11/15 05:18:08;;;;;;;;;;;;;;;;;;5052644;28;1169;-65
2023/11/15 05:26:54;;;;;;;;;;;;;;;;;;5053509;28;4622;-64
2023/11/15 05:35:26;;;;;;;;;;;;;;;;;;5052856;28;5000;-65
2023/11/15 05:38:07;;;;;;;;;;;;;;;;;;5063029;28;5119;-65
2023/11/15 05:40:32;;;;;;;;;;;;;;;;;;5036064;28;5281;-58
2023/11/15 05:42:58;;;;;;;;;;;;;;;;;;5046942;28;6084;-58
2023/11/15 05:45:25;;;;;;;;;;;;;;;;;;5055615;28;4510;-58
2023/11/15 05:47:50;;;;;;;;;;;;;;;;;;5049963;28;2686;-59
2023/11/15 05:50:16;;;;;;;;;;;;;;;;;;5048260;28;4909;-58
2023/11/15 05:52:41;;;;;;;;;;;;;;;;;;5058594;28;5028;-59
2023/11/15 05:55:07;;;;;;;;;;;;;;;;;;5072895;28;5083;-59
2023/11/15 05:57:32;;;;;;;;;;;;;;;;;;5058156;28;4609;-58
2023/11/15 06:00:19;;;;;;;;;;;;;;;;;;5043982;28;928;-59
2023/11/15 06:02:47;;;;;;;;;;;;;;;;;;5057826;28;5134;-58
2023/11/15 06:05:13;;;;;;;;;;;;;;;;;;5073746;28;5077;-58
2023/11/15 06:10:59;;;;;;;;;;;;;;;;;;5060292;28;5039;-60
2023/11/15 06:13:24;;;;;;;;;;;;;;;;;;5068035;28;5071;-59
2023/11/15 06:15:50;;;;;;;;;;;;;;;;;;5075432;28;5254;-61
2023/11/15 06:18:15;;;;;;;;;;;;;;;;;;5075657;28;4567;-60
2023/11/15 06:23:43;;;;;;;;;;;;;;;;;;5076368;28;4903;-60
2023/11/15 06:26:11;;;;;;;;;;;;;;;;;;5057428;28;4835;-60
2023/11/15 06:28:36;;;;;;;;;;;;;;;;;;5074838;28;4486;-61
2023/11/15 06:31:01;;;;;;;;;;;;;;;;;;5075489;28;4890;-60
2023/11/15 06:36:58;;;;;;;;;;;;;;;;;;5072326;28;4488;-61
2023/11/15 06:39:23;;;;;;;;;;;;;;;;;;5074627;28;4770;-60
2023/11/15 06:41:50;;;;;;;;;;;;;;;;;;5075440;28;1017;-62
2023/11/15 06:44:15;;;;;;;;;;;;;;;;;;5074888;28;4509;-61
2023/11/15 06:46:40;;;;;;;;;;;;;;;;;;5074557;28;4892;-60
2023/11/15 06:49:06;;;;;;;;;;;;;;;;;;5074990;28;4982;-60
2023/11/15 06:51:31;;;;;;;;;;;;;;;;;;5057396;28;4759;-59
2023/11/15 06:54:02;;;;;;;;;;;;;;;;;;5075387;28;1977;-61
2023/11/15 06:56:27;;;;;;;;;;;;;;;;;;5056231;28;5062;-62
2023/11/15 06:58:53;;;;;;;;;;;;;;;;;;5074555;28;5049;-63
2023/11/15 07:01:18;;;;;;;;;;;;;;;;;;5056166;28;5179;-64
2023/11/15 07:03:43;;;;;;;;;;;;;;;;;;5074890;28;4415;-63
2023/11/15 07:06:09;;;;;;;;;;;;;;;;;;5068203;28;5042;-62
2023/11/15 07:08:35;;;;;;;;;;;;;;;;;;5059040;28;1227;-63
2023/11/15 07:11:01;;;;;;;;;;;;;;;;;;5066077;28;4609;-64
2023/11/15 07:13:27;;;;;;;;;;;;;;;;;;5053069;28;4562;-62
2023/11/15 07:15:53;;;;;;;;;;;;;;;;;;5061069;28;4876;-62
2023/11/15 07:18:21;;;;;;;;;;;;;;;;;;5053447;28;4617;-64
2023/11/15 07:23:52;;;;;;;;;;;;;;;;;;5057002;28;4693;-62
2023/11/15 07:26:17;;;;;;;;;;;;;;;;;;5047616;28;5042;-63
2023/11/15 07:28:43;;;;;;;;;;;;;;;;;;5028522;28;4462;-64
2023/11/15 07:31:13;;;;;;;;;;;;;;;;;;5066772;28;4951;-63
2023/11/15 07:37:23;;;;;;;;;;;;;;;;;;5051010;28;5037;-62
2023/11/15 07:39:55;;;;;;;;;;;;;;;;;;5052332;28;5057;-62
2023/11/15 07:42:20;;;;;;;;;;;;;;;;;;5054048;28;4407;-62
2023/11/15 07:47:48;;;;;;;;;;;;;;;;;;5053009;28;4727;-60
2023/11/15 07:50:15;;;;;;;;;;;;;;;;;;5053003;28;4448;-60
2023/11/15 07:52:41;;;;;;;;;;;;;;;;;;5053380;28;4604;-60
2023/11/15 07:55:06;;;;;;;;;;;;;;;;;;5049688;28;4430;-62
2023/11/15 07:57:32;;;;;;;;;;;;;;;;;;5052600;28;5005;-58
2023/11/15 07:59:57;;;;;;;;;;;;;;;;;;5053894;28;1003;-60
2023/11/15 08:02:22;;;;;;;;;;;;;;;;;;5050580;28;4822;-60
2023/11/15 08:07:57;;;;;;;;;;;;;;;;;;5061143;28;4365;-60
2023/11/15 08:10:23;;;;;;;;;;;;;;;;;;5063317;28;4978;-60
2023/11/15 08:12:49;;;;;;;;;;;;;;;;;;5051954;28;4477;-60
2023/11/15 08:15:15;;;;;;;;;;;;;;;;;;5053497;28;5613;-60
2023/11/15 08:27:03;;;;;;;;;;;;;;;;;;5064759;28;4727;-62
2023/11/15 08:29:53;;;;;;;;;;;;;;;;;;5033553;28;4573;-60
2023/11/15 08:32:18;;;;;;;;;;;;;;;;;;5052250;28;4622;-61
2023/11/15 08:34:44;;;;;;;;;;;;;;;;;;5052041;28;4611;-61
2023/11/15 08:37:12;;;;;;;;;;;;;;;;;;5053194;28;5049;-61
2023/11/15 08:39:59;;;;;;;;;;;;;;;;;;5051507;28;4633;-62
2023/11/15 08:42:46;;;;;;;;;;;;;;;;;;5051635;28;4593;-62
2023/11/15 08:45:11;;;;;;;;;;;;;;;;;;5051325;28;4877;-61
2023/11/15 08:53:41;;;;;;;;;;;;;;;;;;5059933;28;4783;-61
2023/11/15 08:56:15;;;;;;;;;;;;;;;;;;5053319;28;5046;-61
2023/11/15 09:01:44;;;;;;;;;;;;;;;;;;5046099;28;4547;-62
2023/11/15 09:04:12;;;;;;;;;;;;;;;;;;5052673;28;4525;-61
2023/11/15 09:06:47;;;;;;;;;;;;;;;;;;5054696;28;5083;-61
2023/11/15 09:09:15;;;;;;;;;;;;;;;;;;5052045;28;5018;-62
2023/11/15 09:14:49;;;;;;;;;;;;;;;;;;5077296;28;4774;-61
2023/11/15 09:23:30;;;;;;;;;;;;;;;;;;5052964;28;4509;-61
2023/11/15 09:25:59;;;;;;;;;;;;;;;;;;5052304;28;4618;-61
2023/11/15 09:28:24;;;;;;;;;;;;;;;;;;5053498;28;4464;-61
2023/11/15 09:33:53;;;;;;;;;;;;;;;;;;5052051;28;5159;-61
2023/11/15 09:36:18;;;;;;;;;;;;;;;;;;5054170;28;4991;-61
2023/11/15 09:38:45;;;;;;;;;;;;;;;;;;5056128;28;1241;-61
2023/11/15 09:44:18;;;;;;;;;;;;;;;;;;5053824;28;4848;-63
2023/11/15 09:46:45;;;;;;;;;;;;;;;;;;5054245;28;4449;-61
2023/11/15 09:49:10;;;;;;;;;;;;;;;;;;5033413;28;5068;-61
2023/11/15 09:51:36;;;;;;;;;;;;;;;;;;5040659;28;4885;-61
2023/11/15 10:03:19;;;;;;;;;;;;;;;;;;5063033;28;5084;-61
2023/11/15 10:05:57;;;;;;;;;;;;;;;;;;5067569;28;1169;-62
2023/11/15 10:08:23;;;;;;;;;;;;;;;;;;5065919;28;4870;-61
2023/11/15 10:11:09;;;;;;;;;;;;;;;;;;5052179;28;5031;-60
2023/11/15 10:13:35;;;;;;;;;;;;;;;;;;5051373;28;4918;-61
2023/11/15 10:16:02;;;;;;;;;;;;;;;;;;5036115;28;5695;-61
2023/11/15 10:18:28;;;;;;;;;;;;;;;;;;5053570;28;4635;-60
2023/11/15 10:21:05;;;;;;;;;;;;;;;;;;5054033;28;1103;-61
2023/11/15 10:23:42;;;;;;;;;;;;;;;;;;5018753;28;7760;-60
2023/11/15 10:26:09;;;;;;;;;;;;;;;;;;5057224;28;5172;-60
2023/11/15 10:28:39;;;;;;;;;;;;;;;;;;5065806;28;4453;-60
2023/11/15 10:34:10;;;;;;;;;;;;;;;;;;5075049;28;4604;-60
2023/11/15 10:36:36;;;;;;;;;;;;;;;;;;5058673;28;4951;-61
2023/11/15 10:39:05;;;;;;;;;;;;;;;;;;5054046;28;1250;-60
2023/11/15 10:41:30;;;;;;;;;;;;;;;;;;5039102;28;5191;-60
2023/11/15 10:44:18;;;;;;;;;;;;;;;;;;5051174;28;4484;-58
2023/11/15 10:46:47;;;;;;;;;;;;;;;;;;5050703;28;4528;-59
2023/11/15 10:49:13;;;;;;;;;;;;;;;;;;5050319;28;4873;-60
2023/11/15 10:51:40;;;;;;;;;;;;;;;;;;5033382;28;5002;-59
2023/11/15 10:54:14;;;;;;;;;;;;;;;;;;5052675;28;5168;-59
2023/11/15 11:02:51;;;;;;;;;;;;;;;;;;5051791;28;4796;-59
2023/11/15 11:08:28;;;;;;;;;;;;;;;;;;5050485;28;4495;-59
2023/11/15 11:10:56;;;;;;;;;;;;;;;;;;5015662;28;5113;-60
2023/11/15 11:13:23;;;;;;;;;;;;;;;;;;5052432;28;5167;-63
2023/11/15 11:18:37;;;;;;;;;;;;;;;;;;5060259;28;4527;-62
2023/11/15 11:21:03;;;;;;;;;;;;;;;;;;5040171;28;4982;-59
2023/11/15 11:23:30;;;;;;;;;;;;;;;;;;5054295;28;964;-59
2023/11/15 11:28:58;;;;;;;;;;;;;;;;;;5055276;28;5182;-58
2023/11/15 11:31:23;;;;;;;;;;;;;;;;;;5056571;28;5090;-61
2023/11/15 11:34:04;;;;;;;;;;;;;;;;;;5034290;28;5293;-60
2023/11/15 11:42:36;;;;;;;;;;;;;;;;;;5054116;28;4661;-59
2023/11/15 11:45:01;;;;;;;;;;;;;;;;;;5053720;28;1720;-61
2023/11/15 11:47:26;;;;;;;;;;;;;;;;;;5051577;28;4477;-59
2023/11/15 11:49:52;;;;;;;;;;;;;;;;;;5064260;28;4971;-58
2023/11/15 11:55:26;;;;;;;;;;;;;;;;;;5053295;28;5225;-58
2023/11/15 12:00:58;;;;;;;;;;;;;;;;;;5053710;28;5125;-59
2023/11/15 12:06:27;;;;;;;;;;;;;;;;;;5053445;28;4404;-59
2023/11/15 12:18:02;;;;;;;;;;;;;;;;;;5074099;28;598;-60
2023/11/15 12:20:27;;;;;;;;;;;;;;;;;;5071279;28;5179;-59
2023/11/15 12:23:05;;;;;;;;;;;;;;;;;;5067325;28;4880;-60
2023/11/15 12:28:40;;;;;;;;;;;;;;;;;;5053893;28;4647;-58
2023/11/15 12:34:08;;;;;;;;;;;;;;;;;;5053059;28;4679;-58
2023/11/15 12:36:34;;;;;;;;;;;;;;;;;;5035065;28;5038;-59
2023/11/15 12:38:59;;;;;;;;;;;;;;;;;;5039370;28;1318;-59
2023/11/15 12:41:26;;;;;;;;;;;;;;;;;;5062434;28;4902;-58
2023/11/15 12:47:16;;;;;;;;;;;;;;;;;;5058681;28;5038;-59
2023/11/15 12:49:41;;;;;;;;;;;;;;;;;;5042128;28;5166;-60
2023/11/15 12:52:07;;;;;;;;;;;;;;;;;;5041561;28;5020;-62
2023/11/15 12:55:09;;;;;;;;;;;;;;;;;;5054957;28;4509;-59
2023/11/15 12:57:54;;;;;;;;;;;;;;;;;;5052530;28;4516;-59
2023/11/15 13:00:29;;;;;;;;;;;;;;;;;;5052484;28;4464;-59
2023/11/15 13:02:54;;;;;;;;;;;;;;;;;;5053153;28;1079;-58
2023/11/15 13:05:24;;;;;;;;;;;;;;;;;;5054763;28;5217;-59
2023/11/15 13:07:49;;;;;;;;;;;;;;;;;;5043347;28;4778;-58
2023/11/15 13:10:42;;;;;;;;;;;;;;;;;;5052497;28;4894;-59
2023/11/15 13:13:11;;;;;;;;;;;;;;;;;;5052609;28;4628;-59
2023/11/15 13:16:03;;;;;;;;;;;;;;;;;;5053378;28;4700;-58
2023/11/15 13:18:28;;;;;;;;;;;;;;;;;;5063169;28;4442;-58
2023/11/15 13:20:57;;;;;;;;;;;;;;;;;;5050898;28;1107;-58
2023/11/15 13:23:24;;;;;;;;;;;;;;;;;;5034888;28;5050;-59
2023/11/15 13:25:55;;;;;;;;;;;;;;;;;;5052978;28;4969;-59
2023/11/15 13:28:21;;;;;;;;;;;;;;;;;;5050674;28;5078;-58
2023/11/15 13:30:47;;;;;;;;;;;;;;;;;;5060318;28;4894;-59
2023/11/15 13:33:32;;;;;;;;;;;;;;;;;;5052385;28;5084;-58
2023/11/15 13:38:48;;;;;;;;;;;;;;;;;;5052974;28;5248;-59
2023/11/15 13:41:17;;;;;;;;;;;;;;;;;;5053744;28;4956;-58
2023/11/15 13:43:44;;;;;;;;;;;;;;;;;;5038413;28;4725;-58
2023/11/15 13:49:14;;;;;;;;;;;;;;;;;;5062278;28;5258;-58
2023/11/15 13:51:39;;;;;;;;;;;;;;;;;;5053228;28;5106;-58
2023/11/15 13:54:04;;;;;;;;;;;;;;;;;;5058232;28;4562;-57
2023/11/15 13:56:30;;;;;;;;;;;;;;;;;;5051246;28;1049;-58
2023/11/15 13:59:18;;;;;;;;;;;;;;;;;;5053997;28;4452;-58
2023/11/15 14:01:44;;;;;;;;;;;;;;;;;;5055444;28;4802;-59
2023/11/15 14:22:54;;;;;;;;;;;;;;;;;;5055598;28;5530;-59
2023/11/15 14:25:20;;;;;;;;;;;;;;;;;;5054933;28;4956;-58
2023/11/15 14:27:49;;;;;;;;;;;;;;;;;;5067211;28;4635;-58
2023/11/15 14:30:15;;;;;;;;;;;;;;;;;;5075648;28;4991;-59
2023/11/15 14:32:41;;;;;;;;;;;;;;;;;;5053349;28;1412;-59
2023/11/15 14:35:08;;;;;;;;;;;;;;;;;;5055334;28;5112;-58
2023/11/15 14:37:34;;;;;;;;;;;;;;;;;;5040009;28;5051;-58
2023/11/15 14:39:59;;;;;;;;;;;;;;;;;;5060052;28;4659;-59
2023/11/15 14:42:24;;;;;;;;;;;;;;;;;;5053883;28;4517;-59
2023/11/15 14:44:49;;;;;;;;;;;;;;;;;;5060462;28;1074;-58
2023/11/15 14:47:16;;;;;;;;;;;;;;;;;;5052228;28;4604;-59
2023/11/15 14:49:56;;;;;;;;;;;;;;;;;;5056314;28;5001;-59
2023/11/15 14:52:25;;;;;;;;;;;;;;;;;;5049418;28;4991;-59
2023/11/15 14:54:51;;;;;;;;;;;;;;;;;;5052795;28;5305;-59
2023/11/15 14:57:17;;;;;;;;;;;;;;;;;;5050270;28;4966;-58
2023/11/15 14:59:42;;;;;;;;;;;;;;;;;;5065685;28;1283;-58
2023/11/15 15:02:09;;;;;;;;;;;;;;;;;;5048976;28;4602;-58
2023/11/15 15:04:35;;;;;;;;;;;;;;;;;;5034990;28;4640;-58
2023/11/15 15:07:37;;;;;;;;;;;;;;;;;;5053324;28;4853;-58
2023/11/15 15:10:05;;;;;;;;;;;;;;;;;;5032795;28;5161;-58
2023/11/15 15:12:30;;;;;;;;;;;;;;;;;;5050922;28;4484;-58
2023/11/15 15:14:55;;;;;;;;;;;;;;;;;;5050716;28;2003;-58
2023/11/15 15:17:38;;;;;;;;;;;;;;;;;;5032898;28;5214;-58
2023/11/15 15:20:04;;;;;;;;;;;;;;;;;;5052905;28;4922;-58
2023/11/15 15:22:29;;;;;;;;;;;;;;;;;;5052648;28;4982;-58
2023/11/15 15:25:20;;;;;;;;;;;;;;;;;;5047177;28;4979;-58
2023/11/15 15:27:46;;;;;;;;;;;;;;;;;;5047717;28;5085;-58
2023/11/15 15:33:21;;;;;;;;;;;;;;;;;;5053268;28;4485;-58
2023/11/15 15:35:51;;;;;;;;;;;;;;;;;;5033105;28;1914;-58
2023/11/15 15:38:16;;;;;;;;;;;;;;;;;;5055576;28;4606;-58
2023/11/15 15:40:42;;;;;;;;;;;;;;;;;;5050404;28;4847;-58
2023/11/15 15:43:07;;;;;;;;;;;;;;;;;;5046863;28;5031;-58
2023/11/15 15:45:32;;;;;;;;;;;;;;;;;;5049654;28;4853;-59
2023/11/15 15:47:59;;;;;;;;;;;;;;;;;;5052904;28;1000;-59
2023/11/15 15:53:27;;;;;;;;;;;;;;;;;;5065365;28;4544;-58
2023/11/15 15:55:52;;;;;;;;;;;;;;;;;;5052435;28;4574;-58
2023/11/15 15:58:18;;;;;;;;;;;;;;;;;;5035819;28;4837;-57
2023/11/15 16:00:44;;;;;;;;;;;;;;;;;;5019001;28;5860;-58
2023/11/15 16:03:09;;;;;;;;;;;;;;;;;;5051731;28;5006;-58
2023/11/15 16:05:34;;;;;;;;;;;;;;;;;;5072056;28;1158;-58
2023/11/15 16:08:00;;;;;;;;;;;;;;;;;;5073157;28;4956;-58
2023/11/15 16:10:25;;;;;;;;;;;;;;;;;;5060912;28;4986;-58
2023/11/15 16:12:50;;;;;;;;;;;;;;;;;;5059202;28;4472;-58
2023/11/15 16:15:19;;;;;;;;;;;;;;;;;;5056213;28;4655;-58
2023/11/15 16:17:44;;;;;;;;;;;;;;;;;;5054869;28;1197;-58
2023/11/15 16:26:16;;;;;;;;;;;;;;;;;;5078262;28;4326;-58
2023/11/15 16:28:42;;;;;;;;;;;;;;;;;;5073480;28;4626;-57
2023/11/15 16:31:25;;;;;;;;;;;;;;;;;;5056089;28;4523;-57
2023/11/15 16:37:27;;;;;;;;;;;;;;;;;;5052715;28;4576;-59
2023/11/15 16:46:12;;;;;;;;;;;;;;;;;;5052503;28;4948;-58
2023/11/15 16:48:37;;;;;;;;;;;;;;;;;;5058982;28;4611;-58
2023/11/15 16:51:02;;;;;;;;;;;;;;;;;;5063725;28;5214;-58
2023/11/15 16:53:28;;;;;;;;;;;;;;;;;;5054071;28;1118;-59
2023/11/15 16:55:53;;;;;;;;;;;;;;;;;;5052912;28;5034;-58
2023/11/15 16:58:19;;;;;;;;;;;;;;;;;;5053652;28;4881;-58
2023/11/15 17:00:45;;;;;;;;;;;;;;;;;;5060560;28;4882;-58
2023/11/15 17:03:10;;;;;;;;;;;;;;;;;;5056727;28;4410;-58
2023/11/15 17:05:37;;;;;;;;;;;;;;;;;;5055749;28;1182;-58
2023/11/15 17:08:02;;;;;;;;;;;;;;;;;;5035716;28;5008;-59
2023/11/15 17:10:52;;;;;;;;;;;;;;;;;;5037196;28;5001;-59
2023/11/15 17:19:59;;;;;;;;;;;;;;;;;;5054940;28;4489;-58
2023/11/15 17:22:24;;;;;;;;;;;;;;;;;;5031945;28;5085;-57
2023/11/15 17:24:52;;;;;;;;;;;;;;;;;;5052245;28;5048;-58
2023/11/15 17:27:17;;;;;;;;;;;;;;;;;;5051287;28;4719;-57
2023/11/15 17:30:05;;;;;;;;;;;;;;;;;;5061743;28;1127;-58
2023/11/15 17:32:30;;;;;;;;;;;;;;;;;;5054016;28;5919;-59
2023/11/15 17:34:58;;;;;;;;;;;;;;;;;;5032929;28;5469;-58
2023/11/15 17:37:25;;;;;;;;;;;;;;;;;;5053082;28;5206;-58
2023/11/15 17:39:50;;;;;;;;;;;;;;;;;;5057919;28;5092;-57
2023/11/15 17:42:15;;;;;;;;;;;;;;;;;;5066915;28;5053;-56
2023/11/15 17:44:41;;;;;;;;;;;;;;;;;;5055568;28;2202;-61
2023/11/15 17:50:09;;;;;;;;;;;;;;;;;;5056135;28;4995;-53
2023/11/15 17:58:47;;;;;;;;;;;;;;;;;;5076180;28;4975;-53
2023/11/15 18:01:12;;;;;;;;;;;;;;;;;;5075698;28;4464;-54
2023/11/15 18:03:39;;;;;;;;;;;;;;;;;;5075855;28;5091;-53
2023/11/15 18:06:05;;;;;;;;;;;;;;;;;;5055638;28;5010;-53
2023/11/15 18:08:30;;;;;;;;;;;;;;;;;;5050755;28;2554;-53
2023/11/15 18:10:55;;;;;;;;;;;;;;;;;;5046457;28;4934;-55
2023/11/15 18:13:21;;;;;;;;;;;;;;;;;;5051887;28;4496;-52
2023/11/15 18:15:46;;;;;;;;;;;;;;;;;;5046238;28;5121;-53
2023/11/15 18:18:12;;;;;;;;;;;;;;;;;;5048765;28;5000;-54
2023/11/15 18:20:39;;;;;;;;;;;;;;;;;;5045928;28;3387;-58
2023/11/15 18:23:10;;;;;;;;;;;;;;;;;;5029241;28;4476;-53
2023/11/15 18:26:01;;;;;;;;;;;;;;;;;;5060231;28;5127;-54
2023/11/15 18:28:26;;;;;;;;;;;;;;;;;;5050223;28;4654;-54
2023/11/15 18:30:53;;;;;;;;;;;;;;;;;;5054859;28;5012;-54
2023/11/15 18:33:18;;;;;;;;;;;;;;;;;;5053745;28;5416;-55
2023/11/15 18:35:44;;;;;;;;;;;;;;;;;;5049690;28;3322;-56
2023/11/15 18:38:10;;;;;;;;;;;;;;;;;;5049110;28;5045;-54
2023/11/15 18:40:47;;;;;;;;;;;;;;;;;;5046513;28;5190;-59
2023/11/15 18:43:50;;;;;;;;;;;;;;;;;;5074280;28;4788;-60
2023/11/15 18:46:18;;;;;;;;;;;;;;;;;;5033878;28;4871;-55
2023/11/15 18:48:43;;;;;;;;;;;;;;;;;;5054442;28;4515;-55
2023/11/15 18:51:08;;;;;;;;;;;;;;;;;;5061116;28;4895;-56
2023/11/15 18:53:33;;;;;;;;;;;;;;;;;;5062823;28;3152;-57
2023/11/15 18:55:59;;;;;;;;;;;;;;;;;;5062578;28;4676;-55
2023/11/15 18:58:26;;;;;;;;;;;;;;;;;;5046732;28;4530;-55
2023/11/15 19:00:53;;;;;;;;;;;;;;;;;;5059372;28;5080;-55
2023/11/15 19:03:18;;;;;;;;;;;;;;;;;;5059593;28;4957;-52
2023/11/15 19:05:45;;;;;;;;;;;;;;;;;;5058141;28;3276;-51
2023/11/15 19:08:11;;;;;;;;;;;;;;;;;;5068367;28;4400;-52
2023/11/15 19:10:37;;;;;;;;;;;;;;;;;;5055081;28;4903;-50
2023/11/15 19:16:18;;;;;;;;;;;;;;;;;;5051565;28;4516;-53
2023/11/15 19:18:46;;;;;;;;;;;;;;;;;;5057589;28;4515;-54
2023/11/15 19:21:15;;;;;;;;;;;;;;;;;;5064110;28;5180;-54
2023/11/15 19:23:51;;;;;;;;;;;;;;;;;;5059525;28;2740;-55
2023/11/15 19:26:16;;;;;;;;;;;;;;;;;;5053079;28;4877;-51
2023/11/15 19:28:42;;;;;;;;;;;;;;;;;;5050869;28;4540;-50
2023/11/15 19:31:11;;;;;;;;;;;;;;;;;;5053496;28;5228;-51
2023/11/15 19:33:49;;;;;;;;;;;;;;;;;;5032819;28;4740;-50
2023/11/15 19:36:15;;;;;;;;;;;;;;;;;;5066441;28;5129;-53
2023/11/15 19:38:40;;;;;;;;;;;;;;;;;;5052759;28;993;-52
2023/11/15 19:41:19;;;;;;;;;;;;;;;;;;4775619;28;7963782;-51
2023/11/15 19:46:46;;;;;;;;;;;;;;;;;;5054331;28;5285;-50
2023/11/15 19:49:12;;;;;;;;;;;;;;;;;;5053940;28;4410;-50
2023/11/15 19:51:38;;;;;;;;;;;;;;;;;;5054094;28;5162;-50
2023/11/15 19:54:05;;;;;;;;;;;;;;;;;;5053676;28;5090;-54
2023/11/15 19:59:33;;;;;;;;;;;;;;;;;;5054805;28;4554;-51
2023/11/15 20:02:00;;;;;;;;;;;;;;;;;;5053786;28;4479;-51
2023/11/15 20:04:26;;;;;;;;;;;;;;;;;;5035757;28;5321;-50
2023/11/15 20:06:51;;;;;;;;;;;;;;;;;;5053778;28;4941;-49
2023/11/15 20:12:21;;;;;;;;;;;;;;;;;;5053526;28;4898;-51
2023/11/15 20:14:48;;;;;;;;;;;;;;;;;;5053587;28;1922;-53
2023/11/15 20:17:13;;;;;;;;;;;;;;;;;;5053429;28;4994;-54
2023/11/15 20:19:38;;;;;;;;;;;;;;;;;;5053839;28;4429;-53
2023/11/15 20:22:04;;;;;;;;;;;;;;;;;;5053510;28;4421;-50
2023/11/15 20:27:33;;;;;;;;;;;;;;;;;;5053968;28;5021;-50
2023/11/15 20:30:07;;;;;;;;;;;;;;;;;;5054568;28;1055;-53
2023/11/15 20:32:33;;;;;;;;;;;;;;;;;;5053893;28;5163;-53
2023/11/15 20:34:58;;;;;;;;;;;;;;;;;;5053313;28;5057;-53
2023/11/15 20:40:33;;;;;;;;;;;;;;;;;;5071840;28;5032;-53
2023/11/15 20:46:03;;;;;;;;;;;;;;;;;;5073597;28;5050;-51
2023/11/15 20:51:32;;;;;;;;;;;;;;;;;;5073466;28;4871;-52
2023/11/15 20:53:58;;;;;;;;;;;;;;;;;;5073906;28;1901;-49
2023/11/15 20:56:23;;;;;;;;;;;;;;;;;;5069642;28;5024;-57
2023/11/15 20:58:49;;;;;;;;;;;;;;;;;;5057104;28;4459;-49
2023/11/15 21:04:20;;;;;;;;;;;;;;;;;;5077299;28;4689;-53
2023/11/15 21:09:48;;;;;;;;;;;;;;;;;;5076951;28;5067;-57
2023/11/15 21:12:13;;;;;;;;;;;;;;;;;;5076320;28;5110;-57
2023/11/15 21:14:39;;;;;;;;;;;;;;;;;;5077128;28;1909;-57
2023/11/15 21:17:05;;;;;;;;;;;;;;;;;;5076520;28;4385;-50
2023/11/15 21:22:34;;;;;;;;;;;;;;;;;;5076909;28;4717;-55
2023/11/15 21:24:59;;;;;;;;;;;;;;;;;;5076416;28;4840;-54
2023/11/15 21:27:24;;;;;;;;;;;;;;;;;;5074107;28;4457;-53
2023/11/15 21:29:51;;;;;;;;;;;;;;;;;;5077284;28;1079;-56
2023/11/15 21:32:42;;;;;;;;;;;;;;;;;;5072970;28;4432;-54
2023/11/15 21:35:39;;;;;;;;;;;;;;;;;;5056338;28;4937;-53
2023/11/15 21:41:14;;;;;;;;;;;;;;;;;;5053573;28;5075;-55
2023/11/15 21:43:39;;;;;;;;;;;;;;;;;;5036291;28;4955;-53
2023/11/15 21:46:05;;;;;;;;;;;;;;;;;;5036295;28;4799;-54
2023/11/15 21:48:30;;;;;;;;;;;;;;;;;;5036175;28;5023;-54
2023/11/15 21:53:59;;;;;;;;;;;;;;;;;;5037341;28;4643;-53
2023/11/15 22:02:30;;;;;;;;;;;;;;;;;;5056604;28;4562;-57
2023/11/15 22:05:24;;;;;;;;;;;;;;;;;;5038900;28;4958;-53
2023/11/15 22:10:52;;;;;;;;;;;;;;;;;;5030852;28;5075;-53